Time;durP1;ratioP1;P1;durP2;ratioP2;P2;SDS_P1;SDS_P2;PMS_P1;PMS_P2;Temp;Humidity;BMP_temperature;BMP_pressure;BME280_temperature;BME280_humidity;BME280_pressure;Samples;Min_cycle;Max_cycle;Signal;HPM_P1;HPM_P2
2023/02/07 00:00:42;;;;;;;14.93;6.73;;;;;;;;;;5094988;28;20222;-75
2023/02/07 00:03:10;;;;;;;15.17;7.27;;;;;;;;;;5094562;28;20248;-74
2023/02/07 00:05:37;;;;;;;11.67;6.50;;;;;;;;;;5094703;28;20642;-75
2023/02/07 00:08:04;;;;;;;16.43;7.43;;;;;;;;;;5094431;28;20236;-74
2023/02/07 00:10:31;;;;;;;13.93;7.50;;;;;;;;;;5094174;28;20256;-74
2023/02/07 00:13:00;;;;;;;14.37;7.20;;;;;;;;;;5094361;28;20728;-74
2023/02/07 00:15:27;;;;;;;13.13;7.13;;;;;;;;;;5094532;28;20202;-74
2023/02/07 00:17:54;;;;;;;17.03;8.47;;;;;;;;;;5094309;28;20646;-74
2023/02/07 00:20:24;;;;;;;17.07;8.13;;;;;;;;;;5094030;28;20302;-75
2023/02/07 00:22:51;;;;;;;15.93;7.70;;;;;;;;;;5093300;28;20198;-75
2023/02/07 00:25:18;;;;;;;17.23;7.70;;;;;;;;;;5093337;28;20221;-75
2023/02/07 00:27:45;;;;;;;15.87;7.90;;;;;;;;;;5094162;28;20226;-74
2023/02/07 00:30:15;;;;;;;15.53;8.23;;;;;;;;;;5094021;28;20339;-75
2023/02/07 00:32:42;;;;;;;20.77;10.20;;;;;;;;;;5093733;28;20291;-74
2023/02/07 00:35:09;;;;;;;21.50;12.47;;;;;;;;;;5093929;28;20198;-74
2023/02/07 00:37:36;;;;;;;19.10;10.97;;;;;;;;;;5093680;28;20279;-75
2023/02/07 00:40:04;;;;;;;18.67;8.67;;;;;;;;;;5093892;28;20228;-74
2023/02/07 00:42:31;;;;;;;20.33;9.93;;;;;;;;;;5093641;28;20243;-75
2023/02/07 00:44:58;;;;;;;16.30;8.17;;;;;;;;;;5093457;28;20239;-75
2023/02/07 00:47:27;;;;;;;16.17;8.17;;;;;;;;;;5093396;28;20267;-74
2023/02/07 00:49:54;;;;;;;15.70;8.17;;;;;;;;;;5094173;28;20283;-74
2023/02/07 00:52:21;;;;;;;16.67;8.80;;;;;;;;;;5093457;28;20221;-75
2023/02/07 00:54:48;;;;;;;18.27;9.87;;;;;;;;;;5093585;28;20248;-75
2023/02/07 00:57:15;;;;;;;20.17;9.77;;;;;;;;;;5093144;28;20218;-74
2023/02/07 00:59:43;;;;;;;47.80;29.67;;;;;;;;;;5093381;28;20261;-74
2023/02/07 01:02:10;;;;;;;45.37;27.27;;;;;;;;;;5093409;28;20190;-75
2023/02/07 01:04:39;;;;;;;33.57;20.17;;;;;;;;;;5093298;28;20744;-75
2023/02/07 01:07:06;;;;;;;31.27;17.57;;;;;;;;;;5093734;28;20198;-75
2023/02/07 01:09:33;;;;;;;23.73;13.27;;;;;;;;;;5093011;28;20195;-76
2023/02/07 01:12:00;;;;;;;19.80;11.90;;;;;;;;;;5092869;28;20243;-75
2023/02/07 01:14:27;;;;;;;18.93;8.43;;;;;;;;;;5093337;28;20193;-74
2023/02/07 01:16:55;;;;;;;18.07;8.00;;;;;;;;;;5093285;28;20233;-74
2023/02/07 01:19:22;;;;;;;16.67;7.70;;;;;;;;;;5092751;28;20274;-74
2023/02/07 01:21:51;;;;;;;17.87;7.87;;;;;;;;;;5092890;28;20943;-74
2023/02/07 01:24:18;;;;;;;12.67;6.73;;;;;;;;;;5093139;28;20228;-75
2023/02/07 01:26:45;;;;;;;17.57;7.33;;;;;;;;;;5092556;28;20264;-74
2023/02/07 01:29:15;;;;;;;16.43;7.80;;;;;;;;;;5092996;28;20249;-74
2023/02/07 01:31:42;;;;;;;16.33;7.10;;;;;;;;;;5092869;28;20204;-74
2023/02/07 01:34:12;;;;;;;15.43;7.00;;;;;;;;;;5092692;28;20218;-75
2023/02/07 01:36:39;;;;;;;16.97;7.20;;;;;;;;;;5092686;28;20233;-74
2023/02/07 01:39:07;;;;;;;12.33;7.10;;;;;;;;;;5092623;28;20260;-74
2023/02/07 01:41:35;;;;;;;13.97;7.60;;;;;;;;;;5092744;28;20209;-74
2023/02/07 01:44:03;;;;;;;15.20;7.33;;;;;;;;;;5092773;28;20197;-75
2023/02/07 01:46:31;;;;;;;15.13;7.43;;;;;;;;;;5092552;28;20554;-74
2023/02/07 01:48:59;;;;;;;14.77;6.77;;;;;;;;;;5091789;28;20251;-73
2023/02/07 01:51:27;;;;;;;26.40;10.10;;;;;;;;;;5092342;28;20223;-74
2023/02/07 01:53:55;;;;;;;23.33;9.40;;;;;;;;;;5092157;28;20226;-74
2023/02/07 01:56:25;;;;;;;22.77;9.60;;;;;;;;;;5092338;28;20259;-74
2023/02/07 01:58:53;;;;;;;17.63;9.03;;;;;;;;;;5092215;28;20732;-74
2023/02/07 02:01:23;;;;;;;19.97;8.37;;;;;;;;;;5092518;28;20640;-74
2023/02/07 02:03:51;;;;;;;18.90;8.03;;;;;;;;;;5091978;28;20246;-73
2023/02/07 02:06:19;;;;;;;16.67;7.43;;;;;;;;;;5092189;28;20229;-74
2023/02/07 02:08:46;;;;;;;12.87;7.60;;;;;;;;;;5092458;28;20193;-74
2023/02/07 02:11:22;;;;;;;14.30;7.53;;;;;;;;;;5091892;28;20201;-74
2023/02/07 02:13:56;;;;;;;17.60;7.37;;;;;;;;;;5092043;28;20246;-74
2023/02/07 02:16:27;;;;;;;13.83;7.60;;;;;;;;;;5090681;28;20700;-74
2023/02/07 02:19:13;;;;;;;14.30;7.37;;;;;;;;;;5083029;28;20233;-74
2023/02/07 02:21:53;;;;;;;15.03;7.70;;;;;;;;;;5071162;28;20201;-74
2023/02/07 02:24:39;;;;;;;14.67;7.47;;;;;;;;;;5071616;28;20192;-74
2023/02/07 02:27:09;;;;;;;15.53;6.47;;;;;;;;;;5071236;28;20761;-75
2023/02/07 02:29:51;;;;;;;18.23;7.20;;;;;;;;;;5071180;28;20236;-74
2023/02/07 02:32:28;;;;;;;17.40;6.33;;;;;;;;;;5071121;28;20638;-73
2023/02/07 02:34:59;;;;;;;15.67;6.50;;;;;;;;;;5071334;28;20200;-74
2023/02/07 02:37:30;;;;;;;20.40;6.37;;;;;;;;;;5071032;28;20230;-74
2023/02/07 02:40:00;;;;;;;14.83;6.30;;;;;;;;;;5071239;28;20229;-74
2023/02/07 02:42:30;;;;;;;16.47;6.73;;;;;;;;;;5071705;28;20224;-74
2023/02/07 02:44:59;;;;;;;20.77;7.20;;;;;;;;;;5071711;28;20222;-75
2023/02/07 02:47:28;;;;;;;15.77;6.53;;;;;;;;;;5070916;28;20628;-74
2023/02/07 02:49:55;;;;;;;13.27;6.53;;;;;;;;;;5071447;28;20199;-74
2023/02/07 02:52:24;;;;;;;14.97;6.53;;;;;;;;;;5071437;28;20192;-73
2023/02/07 02:54:51;;;;;;;14.80;6.83;;;;;;;;;;5071254;28;20198;-74
2023/02/07 02:57:27;;;;;;;13.10;6.43;;;;;;;;;;5070967;28;20203;-73
2023/02/07 03:00:01;;;;;;;18.77;6.97;;;;;;;;;;5070219;28;20229;-74
2023/02/07 03:02:35;;;;;;;14.93;6.30;;;;;;;;;;5070984;28;20231;-74
2023/02/07 03:05:14;;;;;;;16.43;6.57;;;;;;;;;;5071051;28;20207;-74
2023/02/07 03:07:53;;;;;;;14.43;6.33;;;;;;;;;;5071336;28;20237;-74
2023/02/07 03:10:25;;;;;;;14.30;6.13;;;;;;;;;;5071198;28;20191;-75
2023/02/07 03:12:57;;;;;;;11.13;6.07;;;;;;;;;;5088596;28;20204;-74
2023/02/07 03:15:32;;;;;;;15.57;6.90;;;;;;;;;;5090713;28;20228;-74
2023/02/07 03:18:02;;;;;;;14.93;5.97;;;;;;;;;;5091366;28;20283;-74
2023/02/07 03:20:31;;;;;;;14.90;6.40;;;;;;;;;;5091594;28;20306;-74
2023/02/07 03:23:00;;;;;;;13.93;6.50;;;;;;;;;;5090964;28;20224;-74
2023/02/07 03:25:28;;;;;;;17.73;6.50;;;;;;;;;;5091056;28;20236;-74
2023/02/07 03:27:56;;;;;;;16.83;6.37;;;;;;;;;;5090949;28;20206;-75
2023/02/07 03:30:25;;;;;;;12.97;6.30;;;;;;;;;;5090865;28;20615;-74
2023/02/07 03:32:53;;;;;;;17.90;6.93;;;;;;;;;;5091114;28;20236;-74
2023/02/07 03:35:24;;;;;;;16.57;6.40;;;;;;;;;;5090721;28;20248;-74
2023/02/07 03:37:53;;;;;;;19.00;6.90;;;;;;;;;;5090907;28;20221;-74
2023/02/07 03:40:23;;;;;;;17.37;7.00;;;;;;;;;;5091157;28;20281;-74
2023/02/07 03:42:52;;;;;;;14.10;6.93;;;;;;;;;;5090937;28;20240;-73
2023/02/07 03:45:20;;;;;;;10.37;5.77;;;;;;;;;;5090400;28;20227;-73
2023/02/07 03:47:47;;;;;;;19.37;7.20;;;;;;;;;;5091127;28;20222;-74
2023/02/07 03:50:15;;;;;;;19.00;7.10;;;;;;;;;;5090679;28;20251;-74
2023/02/07 03:52:42;;;;;;;16.10;6.47;;;;;;;;;;5090846;28;20281;-74
2023/02/07 03:55:09;;;;;;;16.37;6.73;;;;;;;;;;5091273;28;20227;-74
2023/02/07 03:57:38;;;;;;;18.87;6.57;;;;;;;;;;5090598;28;20249;-73
2023/02/07 04:00:06;;;;;;;17.37;6.90;;;;;;;;;;5090208;28;20256;-75
2023/02/07 04:02:33;;;;;;;16.70;7.13;;;;;;;;;;5090945;28;20198;-74
2023/02/07 04:05:00;;;;;;;17.43;7.27;;;;;;;;;;5091242;28;20224;-74
2023/02/07 04:07:28;;;;;;;17.17;6.43;;;;;;;;;;5090411;28;20231;-74
2023/02/07 04:09:55;;;;;;;16.17;6.90;;;;;;;;;;5090432;28;20673;-74
2023/02/07 04:12:22;;;;;;;17.77;6.97;;;;;;;;;;5093735;28;20228;-74
2023/02/07 04:14:51;;;;;;;15.87;7.33;;;;;;;;;;5094284;28;20194;-73
2023/02/07 04:17:18;;;;;;;16.90;6.50;;;;;;;;;;5093829;28;20717;-74
2023/02/07 04:19:45;;;;;;;15.67;7.17;;;;;;;;;;5093977;28;20280;-75
2023/02/07 04:22:12;;;;;;;17.17;7.30;;;;;;;;;;5094276;28;20226;-74
2023/02/07 04:24:39;;;;;;;16.10;7.27;;;;;;;;;;5094061;28;20283;-74
2023/02/07 04:27:06;;;;;;;18.27;7.77;;;;;;;;;;5093940;28;20706;-74
2023/02/07 04:29:34;;;;;;;17.53;7.63;;;;;;;;;;5093890;28;20207;-75
2023/02/07 04:32:02;;;;;;;14.73;7.53;;;;;;;;;;5094380;28;20224;-74
2023/02/07 04:34:30;;;;;;;23.00;7.53;;;;;;;;;;5093648;28;20201;-74
2023/02/07 04:36:57;;;;;;;17.37;6.93;;;;;;;;;;5094176;28;20233;-74
2023/02/07 04:39:24;;;;;;;18.73;7.27;;;;;;;;;;5094134;28;20618;-73
2023/02/07 04:41:51;;;;;;;16.67;7.37;;;;;;;;;;5093894;28;20255;-73
2023/02/07 04:44:18;;;;;;;19.23;7.27;;;;;;;;;;5093669;28;20235;-74
2023/02/07 04:46:46;;;;;;;19.30;7.70;;;;;;;;;;5093915;28;20223;-74
2023/02/07 04:49:14;;;;;;;20.93;7.23;;;;;;;;;;5093792;28;20197;-74
2023/02/07 04:51:41;;;;;;;15.30;7.27;;;;;;;;;;5093444;28;20243;-74
2023/02/07 04:54:09;;;;;;;17.17;7.63;;;;;;;;;;5094229;28;20196;-74
2023/02/07 04:56:36;;;;;;;21.00;7.87;;;;;;;;;;5094157;28;20278;-74
2023/02/07 04:59:03;;;;;;;17.13;8.07;;;;;;;;;;5093956;28;20743;-74
2023/02/07 05:01:30;;;;;;;19.93;7.63;;;;;;;;;;5094267;28;20284;-74
2023/02/07 05:03:57;;;;;;;20.70;7.87;;;;;;;;;;5093841;28;20236;-74
2023/02/07 05:06:26;;;;;;;21.47;8.23;;;;;;;;;;5093534;28;20232;-74
2023/02/07 05:08:53;;;;;;;18.97;7.50;;;;;;;;;;5094102;28;20742;-74
2023/02/07 05:11:20;;;;;;;23.97;7.90;;;;;;;;;;5094076;28;20207;-74
2023/02/07 05:13:47;;;;;;;24.53;8.93;;;;;;;;;;5093829;28;20664;-74
2023/02/07 05:16:15;;;;;;;24.40;8.50;;;;;;;;;;5093369;28;20639;-74
2023/02/07 05:18:42;;;;;;;20.10;8.23;;;;;;;;;;5085987;28;20229;-73
2023/02/07 05:21:10;;;;;;;20.73;9.10;;;;;;;;;;5084764;28;20260;-73
2023/02/07 05:23:38;;;;;;;22.93;8.83;;;;;;;;;;5095690;28;20242;-73
2023/02/07 05:26:06;;;;;;;21.03;8.20;;;;;;;;;;5088130;28;20303;-73
2023/02/07 05:28:33;;;;;;;18.90;8.10;;;;;;;;;;5075341;28;20198;-73
2023/02/07 05:31:00;;;;;;;24.47;9.40;;;;;;;;;;5074749;28;20248;-73
2023/02/07 05:33:27;;;;;;;22.70;9.67;;;;;;;;;;5074122;28;20231;-73
2023/02/07 05:35:54;;;;;;;18.80;8.87;;;;;;;;;;5074753;28;20209;-73
2023/02/07 05:38:21;;;;;;;19.60;8.63;;;;;;;;;;5074898;28;20244;-73
2023/02/07 05:40:50;;;;;;;19.13;8.37;;;;;;;;;;5073355;28;20280;-73
2023/02/07 05:43:17;;;;;;;25.03;9.00;;;;;;;;;;5086098;28;20201;-73
2023/02/07 05:45:45;;;;;;;23.00;8.97;;;;;;;;;;5096260;28;20194;-74
2023/02/07 05:48:13;;;;;;;27.00;9.47;;;;;;;;;;5093313;28;20224;-73
2023/02/07 05:50:40;;;;;;;29.10;9.93;;;;;;;;;;5092269;28;20255;-73
2023/02/07 05:53:08;;;;;;;26.53;9.77;;;;;;;;;;5092600;28;20277;-73
2023/02/07 05:55:35;;;;;;;30.40;10.30;;;;;;;;;;5092370;28;20212;-74
2023/02/07 05:58:03;;;;;;;27.90;10.60;;;;;;;;;;5091764;28;20629;-74
2023/02/07 06:00:31;;;;;;;26.60;10.07;;;;;;;;;;5092077;28;20257;-73
2023/02/07 06:02:58;;;;;;;22.93;9.93;;;;;;;;;;5092753;28;20660;-73
2023/02/07 06:05:30;;;;;;;24.37;9.33;;;;;;;;;;5092174;28;20704;-74
2023/02/07 06:07:57;;;;;;;22.33;9.43;;;;;;;;;;5091662;28;20764;-75
2023/02/07 06:10:24;;;;;;;24.33;10.13;;;;;;;;;;5091798;28;20207;-75
2023/02/07 06:12:52;;;;;;;27.03;11.20;;;;;;;;;;5092275;28;20229;-75
2023/02/07 06:15:20;;;;;;;31.43;11.67;;;;;;;;;;5091958;28;20197;-75
2023/02/07 06:17:47;;;;;;;26.90;10.90;;;;;;;;;;5092088;28;20225;-75
2023/02/07 06:20:15;;;;;;;31.87;10.67;;;;;;;;;;5091602;28;20218;-75
2023/02/07 06:22:42;;;;;;;30.13;11.50;;;;;;;;;;5091752;28;20247;-75
2023/02/07 06:25:10;;;;;;;30.00;11.37;;;;;;;;;;5091858;28;20196;-75
2023/02/07 06:27:38;;;;;;;33.73;12.23;;;;;;;;;;5091120;28;20231;-75
2023/02/07 06:30:06;;;;;;;32.33;11.67;;;;;;;;;;5091851;28;20197;-77
2023/02/07 06:32:35;;;;;;;30.50;11.97;;;;;;;;;;5091788;28;20232;-77
2023/02/07 06:35:02;;;;;;;34.33;11.33;;;;;;;;;;5091533;28;20559;-76
2023/02/07 06:37:29;;;;;;;53.67;28.50;;;;;;;;;;5091700;28;20231;-76
2023/02/07 06:39:57;;;;;;;43.67;23.47;;;;;;;;;;5091065;28;20200;-77
2023/02/07 06:42:24;;;;;;;59.20;34.80;;;;;;;;;;5091614;28;20225;-77
2023/02/07 06:44:51;;;;;;;178.33;89.53;;;;;;;;;;5091783;28;20274;-77
2023/02/07 06:47:19;;;;;;;59.70;32.83;;;;;;;;;;5091313;28;20655;-77
2023/02/07 06:49:48;;;;;;;111.30;54.67;;;;;;;;;;5090577;28;20665;-78
2023/02/07 06:52:15;;;;;;;87.63;44.40;;;;;;;;;;5084444;28;20229;-77
2023/02/07 06:54:42;;;;;;;48.30;23.53;;;;;;;;;;5082459;28;21050;-76
2023/02/07 06:57:09;;;;;;;159.77;80.47;;;;;;;;;;5090806;28;20553;-76
2023/02/07 06:59:37;;;;;;;69.97;35.77;;;;;;;;;;5091346;28;20209;-77
2023/02/07 07:02:04;;;;;;;43.27;20.53;;;;;;;;;;5091148;28;20826;-76
2023/02/07 07:04:32;;;;;;;35.27;15.97;;;;;;;;;;5091188;28;20584;-77
2023/02/07 07:07:00;;;;;;;32.60;16.30;;;;;;;;;;5090401;28;20255;-77
2023/02/07 07:09:27;;;;;;;45.40;22.47;;;;;;;;;;5078173;28;20297;-77
2023/02/07 07:11:55;;;;;;;94.63;49.83;;;;;;;;;;5078488;28;20206;-78
2023/02/07 07:14:22;;;;;;;113.33;46.53;;;;;;;;;;5085618;28;20274;-76
2023/02/07 07:16:49;;;;;;;74.60;37.87;;;;;;;;;;5086260;28;20254;-76
2023/02/07 07:19:17;;;;;;;33.10;14.00;;;;;;;;;;5087205;28;20201;-78
2023/02/07 07:21:44;;;;;;;46.70;18.33;;;;;;;;;;5088934;28;20299;-79
2023/02/07 07:24:12;;;;;;;50.30;26.00;;;;;;;;;;5089376;28;20232;-79
2023/02/07 07:26:39;;;;;;;98.93;49.50;;;;;;;;;;5088448;28;20778;-79
2023/02/07 07:29:07;;;;;;;35.90;16.77;;;;;;;;;;5089606;28;20211;-79
2023/02/07 07:31:34;;;;;;;35.27;14.97;;;;;;;;;;5088600;28;20230;-79
2023/02/07 07:34:01;;;;;;;26.50;12.33;;;;;;;;;;5089525;28;20194;-77
2023/02/07 07:36:28;;;;;;;48.27;21.20;;;;;;;;;;5089676;28;20205;-77
2023/02/07 07:38:55;;;;;;;31.77;13.33;;;;;;;;;;5088680;28;21076;-78
2023/02/07 07:41:24;;;;;;;31.30;13.90;;;;;;;;;;5089382;28;20229;-78
2023/02/07 07:43:51;;;;;;;51.70;25.00;;;;;;;;;;5089305;28;20226;-76
2023/02/07 07:46:18;;;;;;;73.43;36.80;;;;;;;;;;5088920;28;20226;-77
2023/02/07 07:48:46;;;;;;;44.23;22.23;;;;;;;;;;5092664;28;20218;-78
2023/02/07 07:51:13;;;;;;;34.57;18.10;;;;;;;;;;5092517;28;20253;-79
2023/02/07 07:53:40;;;;;;;114.00;52.43;;;;;;;;;;5093616;28;20222;-79
2023/02/07 07:56:07;;;;;;;64.43;32.20;;;;;;;;;;5092864;28;20235;-79
2023/02/07 07:58:36;;;;;;;44.10;21.07;;;;;;;;;;5092408;28;20226;-79
2023/02/07 08:01:03;;;;;;;62.77;32.47;;;;;;;;;;5092416;28;20224;-79
2023/02/07 08:03:30;;;;;;;46.70;22.50;;;;;;;;;;5092968;28;20201;-79
2023/02/07 08:05:58;;;;;;;41.37;20.77;;;;;;;;;;5093183;28;20229;-79
2023/02/07 08:08:25;;;;;;;39.43;18.67;;;;;;;;;;5092721;28;20580;-80
2023/02/07 08:10:52;;;;;;;243.23;101.70;;;;;;;;;;5091680;28;20198;-79
2023/02/07 08:13:20;;;;;;;79.27;39.17;;;;;;;;;;5092415;28;20816;-79
2023/02/07 08:15:48;;;;;;;55.07;28.33;;;;;;;;;;5092336;28;20693;-80
2023/02/07 08:18:16;;;;;;;47.43;25.33;;;;;;;;;;5092825;28;20223;-78
2023/02/07 08:20:43;;;;;;;37.90;24.33;;;;;;;;;;5091871;28;20244;-77
2023/02/07 08:23:10;;;;;;;26.27;15.17;;;;;;;;;;5092806;28;20206;-80
2023/02/07 08:25:37;;;;;;;148.57;80.27;;;;;;;;;;5093076;28;20586;-79
2023/02/07 08:28:05;;;;;;;30.63;17.57;;;;;;;;;;5093001;28;20200;-80
2023/02/07 08:30:32;;;;;;;41.83;24.43;;;;;;;;;;5092154;28;20249;-81
2023/02/07 08:33:00;;;;;;;24.07;14.80;;;;;;;;;;5092200;28;20228;-82
2023/02/07 08:35:28;;;;;;;27.57;18.77;;;;;;;;;;5087728;28;20258;-80
2023/02/07 08:37:57;;;;;;;37.50;23.27;;;;;;;;;;5088194;28;20926;-81
2023/02/07 08:40:24;;;;;;;22.53;13.93;;;;;;;;;;5090654;28;20195;-81
2023/02/07 08:42:51;;;;;;;30.83;15.80;;;;;;;;;;5089948;28;20250;-81
2023/02/07 08:45:19;;;;;;;27.47;17.97;;;;;;;;;;5089396;28;20194;-80
2023/02/07 08:47:46;;;;;;;27.93;19.93;;;;;;;;;;5091739;28;20267;-79
2023/02/07 08:50:15;;;;;;;21.77;13.47;;;;;;;;;;5091137;28;20709;-80
2023/02/07 08:52:42;;;;;;;24.17;16.10;;;;;;;;;;5087933;28;20230;-81
2023/02/07 08:55:10;;;;;;;19.23;10.83;;;;;;;;;;5090096;28;20218;-81
2023/02/07 08:57:37;;;;;;;22.97;14.20;;;;;;;;;;5090667;28;20195;-81
2023/02/07 09:00:06;;;;;;;24.90;14.27;;;;;;;;;;5087660;28;20256;-81
2023/02/07 09:02:34;;;;;;;21.10;15.17;;;;;;;;;;5089908;28;20297;-81
2023/02/07 09:05:02;;;;;;;20.90;11.67;;;;;;;;;;5089089;28;20218;-81
2023/02/07 09:07:30;;;;;;;15.97;10.03;;;;;;;;;;5090418;28;20252;-80
2023/02/07 09:09:57;;;;;;;20.27;12.30;;;;;;;;;;5089215;28;20259;-80
2023/02/07 09:12:25;;;;;;;15.80;9.13;;;;;;;;;;5090271;28;20194;-80
2023/02/07 09:14:52;;;;;;;15.20;10.00;;;;;;;;;;5089688;28;20240;-80
2023/02/07 09:17:19;;;;;;;17.53;11.57;;;;;;;;;;5089010;28;20334;-81
2023/02/07 09:19:46;;;;;;;21.13;11.30;;;;;;;;;;5090182;28;20682;-81
2023/02/07 09:22:13;;;;;;;26.90;18.70;;;;;;;;;;5090938;28;20214;-79
2023/02/07 09:24:42;;;;;;;23.17;14.70;;;;;;;;;;5089000;28;20225;-78
2023/02/07 09:27:10;;;;;;;16.57;11.33;;;;;;;;;;5090887;28;20276;-79
2023/02/07 09:29:37;;;;;;;21.73;14.40;;;;;;;;;;5088056;28;20203;-79
2023/02/07 09:32:04;;;;;;;19.10;13.83;;;;;;;;;;5090921;28;20199;-79
2023/02/07 09:34:32;;;;;;;29.83;26.67;;;;;;;;;;5089620;28;20222;-79
2023/02/07 09:36:59;;;;;;;16.07;8.40;;;;;;;;;;5086220;28;20230;-79
2023/02/07 09:39:27;;;;;;;14.63;8.47;;;;;;;;;;5090413;28;20237;-79
2023/02/07 09:42:00;;;;;;;36.93;27.97;;;;;;;;;;5089232;28;20319;-79
2023/02/07 09:44:29;;;;;;;29.23;20.27;;;;;;;;;;5088668;28;20206;-79
2023/02/07 09:47:00;;;;;;;16.17;10.43;;;;;;;;;;5090271;28;20190;-79
2023/02/07 09:49:34;;;;;;;26.70;19.07;;;;;;;;;;5087826;28;20226;-80
2023/02/07 09:52:02;;;;;;;19.33;12.20;;;;;;;;;;5089628;28;20226;-78
2023/02/07 09:54:32;;;;;;;24.53;16.23;;;;;;;;;;5090028;28;20225;-79
2023/02/07 09:57:03;;;;;;;14.27;9.07;;;;;;;;;;5089742;28;20642;-78
2023/02/07 09:59:33;;;;;;;33.47;24.80;;;;;;;;;;5090333;28;20666;-79
2023/02/07 10:02:04;;;;;;;15.90;8.10;;;;;;;;;;5089014;28;20253;-79
2023/02/07 10:04:35;;;;;;;72.73;35.43;;;;;;;;;;5088038;28;20226;-78
2023/02/07 10:07:06;;;;;;;26.67;15.83;;;;;;;;;;5090214;28;20278;-79
2023/02/07 10:09:34;;;;;;;129.60;73.23;;;;;;;;;;5089519;28;20202;-79
2023/02/07 10:12:05;;;;;;;25.70;18.07;;;;;;;;;;5089913;28;20369;-79
2023/02/07 10:14:45;;;;;;;17.90;11.90;;;;;;;;;;5088686;28;20309;-78
2023/02/07 10:17:27;;;;;;;13.90;9.73;;;;;;;;;;5083807;28;20803;-79
2023/02/07 10:19:58;;;;;;;12.10;8.07;;;;;;;;;;5088991;28;20210;-79
2023/02/07 10:22:27;;;;;;;14.77;9.17;;;;;;;;;;5088599;28;20219;-79
2023/02/07 10:25:11;;;;;;;14.63;8.10;;;;;;;;;;5088311;28;20279;-79
2023/02/07 10:27:43;;;;;;;13.87;9.60;;;;;;;;;;5087304;28;20221;-79
2023/02/07 10:30:16;;;;;;;12.80;7.20;;;;;;;;;;5085833;28;20728;-78
2023/02/07 10:32:44;;;;;;;9.70;6.03;;;;;;;;;;5089448;28;20199;-79
2023/02/07 10:35:15;;;;;;;13.07;7.40;;;;;;;;;;5089801;28;20212;-80
2023/02/07 10:37:44;;;;;;;9.27;6.33;;;;;;;;;;5084116;28;20240;-79
2023/02/07 10:40:14;;;;;;;13.73;7.60;;;;;;;;;;5088117;28;20259;-79
2023/02/07 10:42:44;;;;;;;12.50;6.50;;;;;;;;;;5089380;28;20271;-79
2023/02/07 10:45:13;;;;;;;10.70;6.70;;;;;;;;;;5088475;28;21138;-79
2023/02/07 10:47:41;;;;;;;10.40;6.37;;;;;;;;;;5086872;28;20201;-79
2023/02/07 10:50:10;;;;;;;11.30;6.83;;;;;;;;;;5089837;28;20203;-79
2023/02/07 10:52:37;;;;;;;9.90;6.67;;;;;;;;;;5089836;28;20252;-79
2023/02/07 10:55:06;;;;;;;9.20;6.00;;;;;;;;;;5088288;28;20621;-79
2023/02/07 10:57:33;;;;;;;11.77;6.53;;;;;;;;;;5086917;28;20293;-79
2023/02/07 11:00:05;;;;;;;9.17;5.77;;;;;;;;;;5088609;28;20218;-78
2023/02/07 11:02:38;;;;;;;9.23;5.63;;;;;;;;;;5085307;28;20307;-78
2023/02/07 11:05:25;;;;;;;9.10;6.27;;;;;;;;;;5087700;28;20203;-80
2023/02/07 11:07:57;;;;;;;12.07;7.13;;;;;;;;;;5087850;28;20194;-78
2023/02/07 11:10:25;;;;;;;10.90;6.67;;;;;;;;;;5088746;28;20195;-79
2023/02/07 11:12:56;;;;;;;10.50;6.53;;;;;;;;;;5089253;28;20551;-79
2023/02/07 11:15:25;;;;;;;12.00;6.53;;;;;;;;;;5089039;28;20197;-78
2023/02/07 11:17:54;;;;;;;9.70;6.50;;;;;;;;;;5088153;28;20708;-78
2023/02/07 11:20:24;;;;;;;9.27;6.30;;;;;;;;;;5088964;28;20255;-79
2023/02/07 11:22:52;;;;;;;9.33;6.67;;;;;;;;;;5093560;28;20218;-79
2023/02/07 11:25:19;;;;;;;9.47;5.93;;;;;;;;;;5093752;28;20195;-78
2023/02/07 11:27:47;;;;;;;9.50;6.27;;;;;;;;;;5090882;28;20256;-78
2023/02/07 11:30:17;;;;;;;10.50;6.43;;;;;;;;;;5091805;28;20291;-78
2023/02/07 11:32:54;;;;;;;8.13;5.83;;;;;;;;;;5091755;28;20198;-80
2023/02/07 11:35:22;;;;;;;8.90;6.00;;;;;;;;;;5093668;28;20287;-81
2023/02/07 11:37:58;;;;;;;8.37;5.50;;;;;;;;;;5090010;28;20247;-78
2023/02/07 11:40:28;;;;;;;9.03;6.37;;;;;;;;;;5090969;28;20228;-78
2023/02/07 11:42:59;;;;;;;9.30;6.00;;;;;;;;;;5093353;28;20261;-78
2023/02/07 11:45:26;;;;;;;11.37;7.40;;;;;;;;;;5089293;28;20704;-78
2023/02/07 11:47:56;;;;;;;10.83;6.30;;;;;;;;;;5092346;28;20639;-79
2023/02/07 11:50:26;;;;;;;9.60;6.13;;;;;;;;;;5090763;28;20225;-79
2023/02/07 11:52:55;;;;;;;9.97;6.17;;;;;;;;;;5083476;28;20241;-79
2023/02/07 11:55:24;;;;;;;8.70;6.13;;;;;;;;;;5094172;28;20251;-80
2023/02/07 11:57:51;;;;;;;10.07;6.90;;;;;;;;;;5092252;28;20198;-80
2023/02/07 12:00:21;;;;;;;9.77;6.50;;;;;;;;;;5093354;28;20199;-80
2023/02/07 12:02:51;;;;;;;8.90;6.00;;;;;;;;;;5092514;28;20323;-79
2023/02/07 12:05:21;;;;;;;9.50;6.40;;;;;;;;;;5093328;28;20758;-80
2023/02/07 12:07:50;;;;;;;8.33;5.93;;;;;;;;;;5080840;28;20237;-79
2023/02/07 12:10:21;;;;;;;8.93;6.00;;;;;;;;;;5091755;28;20226;-80
2023/02/07 12:12:50;;;;;;;8.83;5.87;;;;;;;;;;5088643;28;20194;-80
2023/02/07 12:15:20;;;;;;;10.30;6.20;;;;;;;;;;5094194;28;20199;-80
2023/02/07 12:17:53;;;;;;;9.53;6.10;;;;;;;;;;5091457;28;20191;-80
2023/02/07 12:20:24;;;;;;;9.70;6.40;;;;;;;;;;5092461;28;20259;-79
2023/02/07 12:22:54;;;;;;;9.37;6.20;;;;;;;;;;5092631;28;20313;-79
2023/02/07 12:25:22;;;;;;;9.00;5.80;;;;;;;;;;5092974;28;20315;-80
2023/02/07 12:27:50;;;;;;;9.87;6.13;;;;;;;;;;5091625;28;20242;-80
2023/02/07 12:30:21;;;;;;;8.17;5.27;;;;;;;;;;5091404;28;20234;-80
2023/02/07 12:32:52;;;;;;;9.47;6.10;;;;;;;;;;5097864;28;20234;-79
2023/02/07 12:35:26;;;;;;;8.90;5.77;;;;;;;;;;5092607;28;20205;-78
2023/02/07 12:37:58;;;;;;;9.20;6.13;;;;;;;;;;5092076;28;20293;-83
2023/02/07 12:40:29;;;;;;;9.67;6.27;;;;;;;;;;5083091;28;20313;-79
2023/02/07 12:42:58;;;;;;;9.10;6.13;;;;;;;;;;5085495;28;20674;-82
2023/02/07 12:45:32;;;;;;;8.90;6.07;;;;;;;;;;5098250;28;20765;-80
2023/02/07 12:48:04;;;;;;;10.97;6.00;;;;;;;;;;5090654;28;20602;-80
2023/02/07 12:50:40;;;;;;;8.07;5.60;;;;;;;;;;5090146;28;20640;-79
2023/02/07 12:53:20;;;;;;;8.30;6.00;;;;;;;;;;5091730;28;20213;-80
2023/02/07 12:55:56;;;;;;;8.83;6.07;;;;;;;;;;5088917;28;20278;-80
2023/02/07 12:58:29;;;;;;;8.00;5.63;;;;;;;;;;5091395;28;20233;-81
2023/02/07 13:01:00;;;;;;;6.80;5.50;;;;;;;;;;5091444;28;20298;-79
2023/02/07 13:03:36;;;;;;;8.03;5.57;;;;;;;;;;5090995;28;20320;-80
2023/02/07 13:06:10;;;;;;;8.03;5.13;;;;;;;;;;5090852;28;20284;-80
2023/02/07 13:08:45;;;;;;;8.50;5.57;;;;;;;;;;5088164;28;20188;-80
2023/02/07 13:11:18;;;;;;;10.30;6.30;;;;;;;;;;5090129;28;20202;-81
2023/02/07 13:13:49;;;;;;;7.73;5.57;;;;;;;;;;5087985;28;20187;-79
2023/02/07 13:16:18;;;;;;;8.83;5.80;;;;;;;;;;5084850;28;20677;-79
2023/02/07 13:18:51;;;;;;;11.97;9.90;;;;;;;;;;5089180;28;20217;-82
2023/02/07 13:21:20;;;;;;;8.90;5.73;;;;;;;;;;5091546;28;20285;-81
2023/02/07 13:23:59;;;;;;;9.33;6.67;;;;;;;;;;5091659;28;20256;-81
2023/02/07 13:26:27;;;;;;;11.03;8.83;;;;;;;;;;5091034;28;20241;-82
2023/02/07 13:28:56;;;;;;;10.60;7.63;;;;;;;;;;5092629;28;20686;-82
2023/02/07 13:31:24;;;;;;;9.53;7.30;;;;;;;;;;5089643;28;20203;-81
2023/02/07 13:33:53;;;;;;;10.20;7.93;;;;;;;;;;5091797;28;20277;-80
2023/02/07 13:36:24;;;;;;;10.87;7.53;;;;;;;;;;5089980;28;20222;-82
2023/02/07 13:39:02;;;;;;;9.77;6.53;;;;;;;;;;5091171;28;20659;-82
2023/02/07 13:41:34;;;;;;;8.60;5.60;;;;;;;;;;5095436;28;20214;-82
2023/02/07 13:44:04;;;;;;;14.00;6.60;;;;;;;;;;5088975;28;20254;-81
2023/02/07 13:46:39;;;;;;;18.43;15.30;;;;;;;;;;5091519;28;20205;-80
2023/02/07 13:49:09;;;;;;;11.13;9.43;;;;;;;;;;5090710;28;20565;-80
2023/02/07 13:51:41;;;;;;;23.00;17.20;;;;;;;;;;5090580;28;20199;-82
2023/02/07 13:54:18;;;;;;;8.67;6.37;;;;;;;;;;5090208;28;20568;-81
2023/02/07 13:59:41;;;;;;;31.47;22.20;;;;;;;;;;5088113;28;20216;-82
2023/02/07 14:02:15;;;;;;;10.30;7.30;;;;;;;;;;5089880;28;20281;-80
2023/02/07 14:04:46;;;;;;;16.20;12.90;;;;;;;;;;5079493;28;20309;-81
2023/02/07 14:07:20;;;;;;;10.30;7.83;;;;;;;;;;5091123;28;20218;-83
2023/02/07 14:09:49;;;;;;;10.13;6.40;;;;;;;;;;5089377;28;20200;-82
2023/02/07 14:12:19;;;;;;;13.77;11.73;;;;;;;;;;5089698;28;20224;-83
2023/02/07 14:14:46;;;;;;;10.40;7.07;;;;;;;;;;5095871;28;20639;-82
2023/02/07 14:17:15;;;;;;;16.70;11.87;;;;;;;;;;5088246;28;20243;-83
2023/02/07 14:19:49;;;;;;;10.03;6.77;;;;;;;;;;5089831;28;20214;-82
2023/02/07 14:22:18;;;;;;;10.13;7.70;;;;;;;;;;5087220;28;20287;-83
2023/02/07 14:24:50;;;;;;;10.83;7.93;;;;;;;;;;5083843;28;20316;-83
2023/02/07 14:27:33;;;;;;;10.43;8.30;;;;;;;;;;5086753;28;20319;-82
2023/02/07 14:30:22;;;;;;;11.00;8.70;;;;;;;;;;5089052;28;20236;-82
2023/02/07 14:33:04;;;;;;;9.77;7.10;;;;;;;;;;5087805;28;20330;-81
2023/02/07 14:35:35;;;;;;;10.20;7.23;;;;;;;;;;5087526;28;20202;-81
2023/02/07 14:38:12;;;;;;;12.13;7.40;;;;;;;;;;5087969;28;20198;-81
2023/02/07 14:40:55;;;;;;;12.13;8.40;;;;;;;;;;5089613;28;20192;-82
2023/02/07 14:43:24;;;;;;;10.63;7.40;;;;;;;;;;5090823;28;20231;-81